Time;durP1;ratioP1;P1;durP2;ratioP2;P2;SDS_P1;SDS_P2;PMS_P1;PMS_P2;Temp;Humidity;BMP_temperature;BMP_pressure;BME280_temperature;BME280_humidity;BME280_pressure;Samples;Min_cycle;Max_cycle;Signal;HPM_P1;HPM_P2
2023/10/01 00:01:43;;;;;;;12.73;5.38;;;;;;;14.75;85.36;102454.47;7398912;19;19938;-63
2023/10/01 00:04:14;;;;;;;12.68;5.00;;;;;;;14.74;85.82;102469.91;7401203;19;20407;-63
2023/10/01 00:06:43;;;;;;;10.77;4.70;;;;;;;14.73;86.06;102475.47;7400668;19;20006;-63
2023/10/01 00:09:19;;;;;;;13.13;4.88;;;;;;;14.75;85.87;102470.75;7400486;19;19934;-63
2023/10/01 00:11:47;;;;;;;19.23;7.35;;;;;;;14.74;85.71;102445.50;7399380;19;19926;-63
2023/10/01 00:14:16;;;;;;;13.20;4.97;;;;;;;14.74;85.60;102436.50;7399262;19;19919;-63
2023/10/01 00:17:05;;;;;;;8.00;4.72;;;;;;;14.72;85.69;102433.94;7399241;19;19918;-63
2023/10/01 00:19:35;;;;;;;15.73;6.05;;;;;;;14.72;86.09;102431.22;7400344;19;19919;-63
2023/10/01 00:22:03;;;;;;;8.80;4.85;;;;;;;14.72;86.14;102425.81;7399788;19;20261;-63
2023/10/01 00:24:35;;;;;;;11.88;5.07;;;;;;;14.72;86.18;102425.81;7399923;19;19929;-63
2023/10/01 00:27:23;;;;;;;11.88;4.70;;;;;;;14.71;86.02;102442.25;7397534;19;19927;-63
2023/10/01 00:29:52;;;;;;;12.98;5.13;;;;;;;14.71;85.95;102448.50;7399623;19;19922;-63
2023/10/01 00:32:21;;;;;;;9.98;5.18;;;;;;;14.73;85.92;102449.22;7399771;19;19923;-63
2023/10/01 00:34:50;;;;;;;12.60;5.47;;;;;;;14.72;86.08;102450.22;7399308;19;19926;-63
2023/10/01 00:37:19;;;;;;;9.35;5.75;;;;;;;14.70;86.51;102462.25;7399140;19;19921;-63
2023/10/01 00:39:55;;;;;;;14.00;5.30;;;;;;;14.72;86.27;102460.22;7399264;19;19922;-63
2023/10/01 00:42:25;;;;;;;14.18;5.85;;;;;;;14.72;86.33;102449.38;7399004;19;19995;-63
2023/10/01 00:44:54;;;;;;;14.68;5.38;;;;;;;14.73;86.05;102453.78;7399151;19;19922;-63
2023/10/01 00:47:24;;;;;;;8.10;4.80;;;;;;;14.73;86.07;102440.22;7398546;19;19937;-63
2023/10/01 00:49:54;;;;;;;11.27;5.47;;;;;;;14.71;86.47;102437.66;7399535;19;20270;-62
2023/10/01 00:52:24;;;;;;;14.02;5.63;;;;;;;14.71;86.27;102426.81;7399172;19;19974;-63
2023/10/01 00:54:56;;;;;;;12.85;5.60;;;;;;;14.69;86.53;102436.13;7399431;19;20274;-62
2023/10/01 00:57:25;;;;;;;;;;;;;;;14.51;87.56;102437.09;7402725;19;19923;-63
2023/10/01 00:59:54;;;;;;;16.13;5.57;;;;;;;14.64;86.71;102436.63;7399752;19;19934;-63
2023/10/01 01:02:24;;;;;;;16.02;5.40;;;;;;;14.66;86.54;102437.34;7399346;19;19925;-63
2023/10/01 01:07:40;;;;;;;11.02;5.30;;;;;;;14.64;86.62;102422.22;7398930;19;20388;-63
2023/10/01 01:10:15;;;;;;;12.38;5.57;;;;;;;14.60;86.75;102423.56;7397821;19;19943;-62
2023/10/01 01:12:45;;;;;;;14.30;5.35;;;;;;;14.58;86.31;102420.19;7398125;19;19918;-63
2023/10/01 01:15:15;;;;;;;12.07;5.82;;;;;;;14.58;86.66;102425.63;7398683;19;19935;-62
2023/10/01 01:17:44;;;;;;;13.18;5.60;;;;;;;14.58;86.59;102420.19;7398733;19;20268;-62
2023/10/01 01:20:13;;;;;;;10.77;5.45;;;;;;;14.56;86.85;102417.63;7398232;19;19928;-63
2023/10/01 01:22:51;;;;;;;12.05;5.63;;;;;;;14.51;87.04;102420.84;7399061;19;20395;-63
2023/10/01 01:25:25;;;;;;;13.48;6.00;;;;;;;14.53;86.79;102421.53;7397881;19;19910;-63
2023/10/01 01:27:57;;;;;;;12.10;5.32;;;;;;;14.53;86.81;102410.69;7398396;19;19981;-63
2023/10/01 01:30:26;;;;;;;11.25;5.30;;;;;;;14.53;86.91;102412.53;7398086;19;19929;-63
2023/10/01 01:32:57;;;;;;;11.98;5.15;;;;;;;14.53;87.19;102404.41;7397994;19;19934;-63
2023/10/01 01:35:30;;;;;;;10.40;4.70;;;;;;;14.49;86.93;102392.19;7396474;19;19925;-63
2023/10/01 01:38:01;;;;;;;15.18;6.18;;;;;;;14.48;87.03;102391.34;7398253;19;19922;-62
2023/10/01 01:40:32;;;;;;;8.93;4.45;;;;;;;14.47;87.10;102386.94;7397673;19;19915;-63
2023/10/01 01:43:23;;;;;;;12.05;5.30;;;;;;;14.44;87.46;102400.81;7396569;19;20315;-63
2023/10/01 01:45:54;;;;;;;12.38;5.32;;;;;;;14.44;87.43;102406.25;7396274;19;20016;-63
2023/10/01 01:48:30;;;;;;;15.35;6.22;;;;;;;14.43;87.12;102400.97;7397755;19;19986;-63
2023/10/01 01:51:00;;;;;;;13.88;6.25;;;;;;;14.42;87.12;102399.28;7397124;19;19926;-63
2023/10/01 01:53:34;;;;;;;14.00;5.82;;;;;;;14.42;87.78;102393.84;7397731;19;19998;-63
2023/10/01 01:56:08;;;;;;;13.52;6.07;;;;;;;14.40;87.45;102391.31;7397033;19;20381;-62
2023/10/01 01:58:37;;;;;;;15.05;5.70;;;;;;;14.38;87.61;102382.50;7396816;19;19918;-63
2023/10/01 02:03:51;;;;;;;13.18;5.63;;;;;;;14.37;87.80;102379.94;7396886;19;19932;-63
2023/10/01 02:06:26;;;;;;;14.90;5.70;;;;;;;14.36;87.68;102380.97;7397487;19;19915;-62
2023/10/01 02:09:00;;;;;;;13.73;6.20;;;;;;;14.36;87.62;102383.69;7397589;19;19952;-63
2023/10/01 02:11:32;;;;;;;11.30;6.07;;;;;;;14.36;87.78;102383.69;7396286;19;19923;-64
2023/10/01 02:14:03;;;;;;;13.77;5.53;;;;;;;14.34;87.88;102393.81;7396743;19;19926;-63
2023/10/01 02:16:35;;;;;;;11.70;5.90;;;;;;;14.31;87.82;102389.56;7396768;19;19948;-63
2023/10/01 02:19:18;;;;;;;15.55;6.07;;;;;;;14.28;87.96;102397.19;7395599;19;20576;-63
2023/10/01 02:22:00;;;;;;;14.32;6.20;;;;;;;14.24;87.85;102396.63;7397142;19;19922;-63
2023/10/01 02:24:45;;;;;;;13.32;5.82;;;;;;;14.22;87.81;102386.97;7402926;19;19922;-63
2023/10/01 02:27:13;;;;;;;11.82;6.32;;;;;;;14.20;87.80;102383.56;7402529;19;19950;-64
2023/10/01 02:30:11;;;;;;;12.57;6.80;;;;;;;14.19;87.77;102374.63;7401330;19;19923;-63
2023/10/01 02:32:49;;;;;;;9.98;5.82;;;;;;;14.16;87.99;102368.66;7402766;19;19911;-63
2023/10/01 02:38:01;;;;;;;14.25;6.25;;;;;;;14.13;87.85;102380.69;7402471;19;19918;-64
2023/10/01 02:40:36;;;;;;;14.00;6.35;;;;;;;14.11;88.22;102373.75;7401668;19;20406;-63
2023/10/01 02:43:07;;;;;;;15.95;6.72;;;;;;;14.09;87.87;102372.03;7402479;19;19930;-63
2023/10/01 02:45:35;;;;;;;13.75;6.28;;;;;;;14.11;87.95;102373.75;7400981;19;19990;-63
2023/10/01 02:48:16;;;;;;;16.45;6.28;;;;;;;14.10;88.08;102367.47;7401038;19;19939;-64
2023/10/01 02:50:45;;;;;;;11.18;5.93;;;;;;;14.12;88.37;102365.44;7401329;19;19923;-63
2023/10/01 02:53:20;;;;;;;17.42;7.35;;;;;;;14.15;88.79;102369.69;7401832;19;19955;-63
2023/10/01 02:55:51;;;;;;;13.70;6.40;;;;;;;14.16;88.08;102357.81;7401077;19;20379;-63
2023/10/01 02:58:26;;;;;;;12.48;5.90;;;;;;;14.16;88.12;102355.97;7401937;19;19977;-63
2023/10/01 03:00:53;;;;;;;14.73;6.32;;;;;;;14.19;88.15;102357.50;7401927;19;19919;-63
2023/10/01 03:03:31;;;;;;;13.63;6.47;;;;;;;14.18;88.20;102348.53;7401547;19;19977;-63
2023/10/01 03:06:08;;;;;;;11.98;6.15;;;;;;;14.19;88.32;102360.22;7400977;19;19919;-63
2023/10/01 03:11:22;;;;;;;16.77;6.35;;;;;;;14.16;88.33;102355.97;7400817;19;19926;-63
2023/10/01 03:13:54;;;;;;;15.00;7.13;;;;;;;14.16;88.32;102350.53;7401160;19;20530;-63
2023/10/01 03:16:44;;;;;;;12.52;6.00;;;;;;;14.15;88.20;102343.41;7401130;19;20818;-63
2023/10/01 03:19:25;;;;;;;15.65;6.22;;;;;;;14.13;88.38;102334.59;7400623;19;19918;-63
2023/10/01 03:24:47;;;;;;;13.10;7.00;;;;;;;14.12;88.40;102335.63;7399158;19;19919;-63
2023/10/01 03:27:33;;;;;;;16.42;6.68;;;;;;;14.13;88.38;102344.59;7401715;19;19914;-63
2023/10/01 03:30:18;;;;;;;15.93;6.32;;;;;;;14.13;88.22;102336.47;7400865;19;19926;-64
2023/10/01 03:33:08;;;;;;;9.32;5.82;;;;;;;14.14;88.04;102333.59;7398673;19;19922;-63
2023/10/01 03:35:36;;;;;;;16.27;7.07;;;;;;;14.15;88.20;102335.28;7401297;19;20258;-64
2023/10/01 03:38:14;;;;;;;13.77;7.35;;;;;;;14.16;88.07;102334.28;7400189;19;19918;-63
2023/10/01 03:40:58;;;;;;;13.85;6.63;;;;;;;14.17;87.61;102335.97;7401193;19;19923;-63
2023/10/01 03:43:36;;;;;;;12.15;6.60;;;;;;;14.18;87.64;102337.69;7401204;19;19918;-63
2023/10/01 03:46:13;;;;;;;12.45;7.18;;;;;;;14.21;87.39;102331.91;7400343;19;20006;-63
2023/10/01 03:49:00;;;;;;;14.05;7.00;;;;;;;14.22;87.57;102328.19;7398299;19;19919;-63
2023/10/01 03:54:14;;;;;;;16.15;6.75;;;;;;;14.21;87.71;102329.22;7400094;19;19914;-63
2023/10/01 03:56:47;;;;;;;11.15;7.20;;;;;;;14.20;87.87;102324.78;7400144;19;19922;-63
2023/10/01 03:59:21;;;;;;;13.35;6.93;;;;;;;14.20;88.05;102321.22;7400309;19;19932;-63
2023/10/01 04:02:02;;;;;;;15.70;6.70;;;;;;;14.20;87.64;102316.66;7399719;19;19951;-63
2023/10/01 04:04:32;;;;;;;15.98;7.22;;;;;;;14.20;87.81;102308.53;7400366;19;19921;-63
2023/10/01 04:07:10;;;;;;;11.68;6.30;;;;;;;14.20;87.59;102300.41;7399969;19;19929;-63
2023/10/01 04:09:46;;;;;;;14.25;6.93;;;;;;;14.22;87.95;102306.53;7400530;19;19927;-63
2023/10/01 04:12:28;;;;;;;13.02;6.55;;;;;;;14.21;88.07;102302.09;7399908;19;19929;-63
2023/10/01 04:15:01;;;;;;;15.30;6.97;;;;;;;14.21;87.82;102302.09;7400210;19;19929;-63
2023/10/01 04:17:36;;;;;;;16.42;7.03;;;;;;;14.21;88.27;102303.97;7400003;19;19986;-63
2023/10/01 04:20:18;;;;;;;12.00;6.65;;;;;;;14.22;87.85;102317.38;7400062;19;20046;-63
2023/10/01 04:22:47;;;;;;;14.05;6.28;;;;;;;14.21;87.85;102312.94;7400297;19;19937;-64
2023/10/01 04:25:18;;;;;;;11.82;6.10;;;;;;;14.23;87.86;102316.34;7400876;19;20346;-63
2023/10/01 04:27:47;;;;;;;11.07;6.40;;;;;;;14.24;87.74;102320.75;7400133;19;19925;-63
2023/10/01 04:30:21;;;;;;;16.52;8.05;;;;;;;14.25;88.12;102324.31;7399647;19;19943;-63
2023/10/01 04:32:50;;;;;;;14.68;7.20;;;;;;;14.26;87.69;102313.31;7399588;19;19925;-63
2023/10/01 04:35:18;;;;;;;15.80;7.40;;;;;;;14.27;87.77;102312.28;7399377;19;19918;-64
2023/10/01 04:37:48;;;;;;;12.82;6.97;;;;;;;14.26;88.08;102313.31;7400321;19;19919;-64
2023/10/01 04:43:01;;;;;;;15.23;7.90;;;;;;;14.26;87.84;102310.59;7399463;19;19934;-63
2023/10/01 04:45:36;;;;;;;15.57;7.75;;;;;;;14.26;88.12;102301.59;7396458;19;20609;-63
2023/10/01 04:48:15;;;;;;;18.25;7.80;;;;;;;14.25;87.90;102289.06;7399929;19;20741;-64
2023/10/01 04:50:44;;;;;;;17.50;7.47;;;;;;;14.27;87.89;102287.06;7398768;19;19974;-63
2023/10/01 04:53:22;;;;;;;15.35;7.40;;;;;;;14.28;87.67;102291.47;7399129;19;20548;-63
2023/10/01 04:56:00;;;;;;;11.98;6.93;;;;;;;14.28;87.63;102295.00;7397702;19;19958;-63
2023/10/01 04:58:32;;;;;;;16.42;7.82;;;;;;;14.30;87.31;102301.13;7399063;19;19918;-64
2023/10/01 05:01:05;;;;;;;12.70;7.18;;;;;;;14.30;87.26;102301.13;7399321;19;19914;-63
2023/10/01 05:03:44;;;;;;;15.57;7.03;;;;;;;14.32;87.28;102290.13;7398114;19;20271;-63
2023/10/01 05:06:14;;;;;;;23.85;7.70;;;;;;;14.32;87.02;102295.53;7398575;19;20312;-63
2023/10/01 05:09:07;;;;;;;15.82;7.32;;;;;;;14.32;87.14;102300.97;7397683;19;20352;-63
2023/10/01 05:11:35;;;;;;;13.25;7.60;;;;;;;14.32;87.18;102293.69;7397635;19;19942;-63
2023/10/01 05:14:06;;;;;;;20.20;7.22;;;;;;;14.33;87.14;102294.50;7398687;19;19922;-63
2023/10/01 05:16:38;;;;;;;15.57;7.43;;;;;;;14.33;87.35;102303.47;7397935;19;19985;-63
2023/10/01 05:19:13;;;;;;;16.48;6.88;;;;;;;14.33;87.25;102298.06;7398839;19;19978;-63
2023/10/01 05:21:46;;;;;;;13.55;6.80;;;;;;;14.32;87.50;102288.25;7397838;19;20348;-63
2023/10/01 05:24:31;;;;;;;12.68;6.53;;;;;;;14.32;87.52;102292.81;7398546;19;19940;-63
2023/10/01 05:27:02;;;;;;;14.18;7.95;;;;;;;14.32;87.23;102296.38;7398118;19;20408;-63
2023/10/01 05:29:31;;;;;;;15.38;7.13;;;;;;;14.33;87.45;102297.22;7397909;19;19922;-63
2023/10/01 05:32:02;;;;;;;14.38;7.95;;;;;;;14.32;87.93;102301.81;7398213;19;19915;-64
2023/10/01 05:34:31;;;;;;;16.20;6.78;;;;;;;14.31;87.98;102291.13;7397927;19;19919;-63
2023/10/01 05:37:08;;;;;;;13.25;7.00;;;;;;;14.30;88.45;102292.13;7398226;19;19918;-63
2023/10/01 05:39:55;;;;;;;11.57;6.30;;;;;;;14.28;87.95;102299.59;7398009;19;19918;-63
2023/10/01 05:42:25;;;;;;;13.43;7.00;;;;;;;14.27;88.04;102297.88;7397411;19;20015;-63
2023/10/01 05:44:54;;;;;;;16.98;7.22;;;;;;;14.26;87.85;102312.44;7398202;19;19937;-63
2023/10/01 05:47:41;;;;;;;15.70;6.72;;;;;;;14.25;88.33;102308.88;7397236;19;19937;-63
2023/10/01 05:50:12;;;;;;;16.92;6.93;;;;;;;14.26;88.59;102315.16;7397140;19;20634;-63
2023/10/01 05:52:41;;;;;;;12.45;6.85;;;;;;;14.25;88.44;102325.16;7397005;19;19939;-63
2023/10/01 05:55:12;;;;;;;15.73;6.82;;;;;;;14.27;88.49;102325.00;7396947;19;20580;-64
2023/10/01 05:57:40;;;;;;;14.80;7.32;;;;;;;14.25;88.18;102322.44;7399160;19;19929;-63
2023/10/01 06:00:17;;;;;;;12.65;7.28;;;;;;;14.25;88.18;102322.44;7402960;19;20286;-64
2023/10/01 06:03:00;;;;;;;13.02;7.68;;;;;;;14.24;88.84;102331.59;7402776;19;19927;-63
2023/10/01 06:05:32;;;;;;;12.30;6.63;;;;;;;14.23;88.77;102334.47;7402574;19;19952;-63
2023/10/01 06:08:12;;;;;;;14.15;7.00;;;;;;;14.24;88.63;102339.72;7402455;19;19919;-64
2023/10/01 06:10:59;;;;;;;14.30;7.28;;;;;;;14.23;88.93;102345.31;7402090;19;19918;-64
2023/10/01 06:13:56;;;;;;;;;;;;;;;14.10;90.31;102340.38;7403805;19;20515;-63
2023/10/01 06:16:28;;;;;;;11.18;5.70;;;;;;;14.21;89.49;102331.06;7402293;19;19918;-63
2023/10/01 06:19:01;;;;;;;12.93;6.90;;;;;;;14.20;89.81;102340.22;7401982;19;19924;-64
2023/10/01 06:21:31;;;;;;;15.70;8.05;;;;;;;14.19;89.84;102342.09;7401648;19;19925;-63
2023/10/01 06:24:06;;;;;;;14.60;6.30;;;;;;;14.18;90.19;102337.69;7402191;19;19944;-63
2023/10/01 06:26:36;;;;;;;11.40;6.35;;;;;;;14.18;89.82;102332.25;7401854;19;19919;-63
2023/10/01 06:29:05;;;;;;;14.63;5.97;;;;;;;14.18;89.82;102334.97;7402708;19;19919;-63
2023/10/01 06:31:48;;;;;;;12.43;6.00;;;;;;;14.16;90.01;102333.41;7402001;19;19922;-63
2023/10/01 06:34:21;;;;;;;12.82;6.35;;;;;;;14.10;90.05;102334.94;7402287;19;19938;-63
2023/10/01 06:36:51;;;;;;;12.45;6.25;;;;;;;14.09;90.31;102341.38;7401766;19;19919;-63
2023/10/01 06:39:23;;;;;;;11.73;6.38;;;;;;;14.07;90.70;102332.53;7399906;19;19915;-64
2023/10/01 06:41:52;;;;;;;15.85;6.43;;;;;;;14.04;91.19;102335.59;7401941;19;19922;-63
2023/10/01 06:44:21;;;;;;;15.85;6.22;;;;;;;14.03;91.30;102328.47;7401172;19;20345;-62
2023/10/01 06:46:51;;;;;;;16.90;6.47;;;;;;;14.03;91.61;102328.47;7401275;19;20283;-63
2023/10/01 06:49:22;;;;;;;15.75;6.28;;;;;;;14.00;92.06;102323.38;7400663;19;19911;-63
2023/10/01 06:51:52;;;;;;;17.85;7.22;;;;;;;13.99;91.94;102317.13;7401718;19;19922;-63
2023/10/01 06:54:22;;;;;;;16.52;6.28;;;;;;;13.99;92.02;102319.81;7402013;19;19925;-63
2023/10/01 06:56:50;;;;;;;13.10;7.05;;;;;;;14.02;92.44;102311.34;7401402;19;20344;-63
2023/10/01 06:59:27;;;;;;;13.98;6.90;;;;;;;14.05;92.21;102315.63;7401462;19;20026;-64
2023/10/01 07:01:56;;;;;;;11.30;6.28;;;;;;;14.06;92.33;102317.31;7401237;19;19923;-63
2023/10/01 07:04:31;;;;;;;13.60;6.28;;;;;;;14.08;92.50;102310.72;7400592;19;19964;-63
2023/10/01 07:07:22;;;;;;;11.60;5.57;;;;;;;14.12;92.01;102319.34;7399128;19;19986;-63
2023/10/01 07:09:53;;;;;;;14.43;5.82;;;;;;;14.17;91.82;102327.00;7401890;19;19975;-63
2023/10/01 07:12:23;;;;;;;12.88;6.22;;;;;;;14.19;91.99;102333.97;7400741;19;19991;-63
2023/10/01 07:14:53;;;;;;;12.98;6.38;;;;;;;14.24;92.16;102331.59;7401096;19;19925;-63
2023/10/01 07:17:25;;;;;;;14.40;6.13;;;;;;;14.31;91.51;102329.94;7400845;19;19929;-63
2023/10/01 07:20:18;;;;;;;15.85;5.97;;;;;;;14.36;91.29;102324.91;7400556;19;19943;-65
2023/10/01 07:22:46;;;;;;;12.23;6.07;;;;;;;14.41;91.38;102329.81;7401039;19;19918;-63
2023/10/01 07:25:28;;;;;;;13.27;5.75;;;;;;;14.45;91.40;102328.47;7400099;19;20337;-63
2023/10/01 07:27:58;;;;;;;12.07;5.85;;;;;;;14.48;90.88;102330.84;7400552;19;20889;-63
2023/10/01 07:30:39;;;;;;;12.13;5.70;;;;;;;14.48;90.97;102331.69;7400801;19;19924;-63
2023/10/01 07:33:08;;;;;;;13.70;5.85;;;;;;;14.48;90.71;102323.56;7400335;19;19915;-63
2023/10/01 07:35:44;;;;;;;15.60;6.30;;;;;;;14.49;91.05;102325.25;7400167;19;19926;-63
2023/10/01 07:38:13;;;;;;;14.32;5.93;;;;;;;14.50;91.12;102321.50;7399234;19;19914;-63
2023/10/01 07:40:57;;;;;;;15.95;6.70;;;;;;;14.52;90.69;102311.34;7399853;19;19923;-63
2023/10/01 07:43:27;;;;;;;13.50;6.40;;;;;;;14.52;90.82;102321.34;7401213;19;19933;-63
2023/10/01 07:46:01;;;;;;;20.60;7.43;;;;;;;14.50;91.38;102321.50;7400361;19;19939;-63
2023/10/01 07:48:31;;;;;;;11.02;5.65;;;;;;;14.54;91.48;102317.44;7399579;19;19933;-63
2023/10/01 07:51:22;;;;;;;13.63;6.13;;;;;;;14.59;91.78;102314.22;7400098;19;19964;-63
2023/10/01 07:53:51;;;;;;;13.48;5.45;;;;;;;14.66;91.71;102306.28;7400880;19;19926;-63
2023/10/01 07:56:22;;;;;;;13.52;5.40;;;;;;;14.70;91.82;102318.50;7400219;19;19925;-63
2023/10/01 07:58:56;;;;;;;10.02;4.88;;;;;;;14.71;91.48;102315.59;7400788;19;19923;-64
2023/10/01 08:01:36;;;;;;;15.75;5.40;;;;;;;14.75;91.74;102316.13;7400397;19;19953;-63
2023/10/01 08:04:06;;;;;;;17.20;6.07;;;;;;;14.76;92.29;102321.34;7399775;19;19985;-64
2023/10/01 08:06:42;;;;;;;12.60;5.55;;;;;;;14.79;91.88;102328.31;7399788;19;19910;-63
2023/10/01 08:09:12;;;;;;;13.27;4.90;;;;;;;14.81;92.41;102331.69;7400087;19;19926;-63
2023/10/01 08:14:21;;;;;;;13.63;5.70;;;;;;;14.82;92.64;102330.69;7400622;19;20363;-63
2023/10/01 08:17:08;;;;;;;15.00;5.43;;;;;;;14.79;92.41;102331.03;7398441;19;19930;-63
2023/10/01 08:19:49;;;;;;;14.80;5.82;;;;;;;14.77;92.94;102325.78;7397287;19;19961;-63
2023/10/01 08:22:23;;;;;;;15.25;6.18;;;;;;;14.78;93.03;102330.19;7399940;19;19929;-63
2023/10/01 08:24:52;;;;;;;15.57;5.88;;;;;;;14.79;92.86;102321.03;7399993;19;19914;-63
2023/10/01 08:27:29;;;;;;;11.98;5.68;;;;;;;14.84;92.64;102317.81;7399790;19;19918;-63
2023/10/01 08:32:49;;;;;;;14.02;5.80;;;;;;;14.89;93.09;102331.69;7399000;19;19922;-63
2023/10/01 08:35:22;;;;;;;12.18;5.60;;;;;;;14.99;92.70;102327.81;7400618;19;19919;-63
2023/10/01 08:37:59;;;;;;;12.52;5.63;;;;;;;15.07;93.28;102318.81;7400374;19;20651;-63
2023/10/01 08:40:27;;;;;;;12.07;5.53;;;;;;;15.07;93.04;102310.66;7400130;19;20006;-63
2023/10/01 08:42:58;;;;;;;14.70;5.72;;;;;;;15.09;92.98;102307.78;7399530;19;19922;-63
2023/10/01 08:45:37;;;;;;;12.30;5.78;;;;;;;15.04;93.14;102311.03;7399983;19;19990;-63
2023/10/01 08:48:08;;;;;;;14.80;5.90;;;;;;;15.04;93.60;102307.44;7398727;19;20361;-63
2023/10/01 08:50:40;;;;;;;12.73;5.93;;;;;;;15.08;93.07;102306.09;7398560;19;19926;-63
2023/10/01 08:53:14;;;;;;;13.80;5.63;;;;;;;15.10;93.04;102302.16;7399655;19;19922;-63
2023/10/01 08:56:04;;;;;;;12.23;5.97;;;;;;;15.07;92.37;102310.66;7399558;19;19939;-63
2023/10/01 08:58:48;;;;;;;16.48;6.38;;;;;;;15.09;92.26;102311.34;7398540;19;19982;-63
2023/10/01 09:01:20;;;;;;;10.98;5.40;;;;;;;15.16;91.80;102306.94;7399191;19;20337;-63
2023/10/01 09:03:55;;;;;;;11.40;6.03;;;;;;;15.20;91.54;102308.28;7399449;19;19941;-64
2023/10/01 09:06:27;;;;;;;11.60;5.25;;;;;;;15.24;91.42;102304.19;7398684;19;19922;-63
2023/10/01 09:08:59;;;;;;;;;;;;;;;15.20;92.46;102304.72;7402206;19;19933;-63
2023/10/01 09:11:35;;;;;;;14.02;5.57;;;;;;;15.31;91.22;102310.66;7397971;19;19947;-63
2023/10/01 09:16:49;;;;;;;12.60;5.75;;;;;;;15.55;89.98;102298.88;7398194;19;19939;-64
2023/10/01 09:19:35;;;;;;;14.52;5.82;;;;;;;15.58;90.20;102300.41;7398731;19;19919;-65
2023/10/01 09:22:15;;;;;;;11.05;5.72;;;;;;;15.56;89.46;102299.75;7396015;19;19934;-63
2023/10/01 09:24:55;;;;;;;13.85;5.75;;;;;;;15.58;89.44;102300.41;7398321;19;19919;-64
2023/10/01 09:27:27;;;;;;;15.05;5.72;;;;;;;15.57;89.48;102298.72;7395351;19;20290;-63
2023/10/01 09:30:26;;;;;;;11.52;5.82;;;;;;;15.59;89.25;102293.94;7397645;19;20273;-64
2023/10/01 09:33:26;;;;;;;12.75;5.50;;;;;;;15.75;88.84;102297.44;7395608;19;20350;-64
2023/10/01 09:35:59;;;;;;;15.02;5.70;;;;;;;15.94;88.57;102295.34;7397222;19;19926;-64
2023/10/01 09:38:30;;;;;;;10.43;5.75;;;;;;;16.08;87.48;102295.44;7398092;19;19986;-64
2023/10/01 09:41:03;;;;;;;14.13;6.47;;;;;;;16.21;87.10;102305.72;7397343;19;19919;-63
2023/10/01 09:43:35;;;;;;;13.38;5.53;;;;;;;16.33;86.66;102307.00;7397496;19;19946;-65
2023/10/01 09:46:06;;;;;;;12.77;5.65;;;;;;;16.45;86.19;102310.16;7397611;19;20731;-64
2023/10/01 09:48:36;;;;;;;13.70;5.40;;;;;;;16.51;85.79;102307.56;7397659;19;20002;-63
2023/10/01 09:51:13;;;;;;;15.45;5.78;;;;;;;16.56;85.25;102309.75;7396292;19;20362;-64
2023/10/01 09:53:50;;;;;;;13.30;5.50;;;;;;;16.61;85.24;102300.03;7396878;19;19939;-63
2023/10/01 09:56:29;;;;;;;14.82;5.63;;;;;;;16.74;85.95;102302.97;7398089;19;19942;-63
2023/10/01 09:59:03;;;;;;;16.63;5.47;;;;;;;16.86;85.42;102308.84;7398092;19;19970;-64
2023/10/01 10:01:33;;;;;;;12.77;5.15;;;;;;;16.93;84.79;102298.91;7397020;19;19918;-63
2023/10/01 10:04:03;;;;;;;12.88;5.15;;;;;;;16.96;84.61;102292.25;7396719;19;19923;-63
2023/10/01 10:06:33;;;;;;;11.52;4.95;;;;;;;16.97;83.92;102297.53;7396137;19;19935;-63
2023/10/01 10:09:06;;;;;;;13.73;4.82;;;;;;;16.99;83.66;102291.91;7395976;19;19943;-64
2023/10/01 10:11:40;;;;;;;15.52;6.57;;;;;;;16.98;82.85;102296.50;7395103;19;19914;-63
2023/10/01 10:14:40;;;;;;;12.93;5.75;;;;;;;17.00;82.99;102288.97;7396367;19;19987;-63
2023/10/01 10:17:18;;;;;;;12.43;4.50;;;;;;;17.17;83.66;102295.13;7396034;19;19918;-63
2023/10/01 10:20:15;;;;;;;16.38;5.28;;;;;;;17.34;82.22;102295.81;7396604;19;19951;-63
2023/10/01 10:23:13;;;;;;;15.15;5.22;;;;;;;17.52;82.27;102291.66;7394326;19;19926;-63
2023/10/01 10:25:42;;;;;;;;;;;;;;;17.62;81.02;102283.25;7396871;19;19947;-63
2023/10/01 10:28:21;;;;;;;14.57;4.72;;;;;;;17.93;80.79;102286.59;7395386;19;20393;-63
2023/10/01 10:31:29;;;;;;;10.73;4.45;;;;;;;18.02;79.43;102277.28;7395529;19;19918;-63
2023/10/01 10:34:36;;;;;;;12.35;4.20;;;;;;;18.34;79.41;102286.84;7395541;19;19933;-63
2023/10/01 10:37:06;;;;;;;14.02;5.03;;;;;;;18.66;78.65;102280.06;7395637;19;19942;-63
2023/10/01 10:40:04;;;;;;;13.68;5.05;;;;;;;18.82;77.26;102282.50;7394840;19;19919;-63
2023/10/01 10:42:33;;;;;;;14.48;5.20;;;;;;;19.15;78.00;102276.50;7395061;19;20258;-63
2023/10/01 10:45:21;;;;;;;15.02;5.07;;;;;;;19.27;76.69;102275.72;7402016;19;19914;-63
2023/10/01 10:47:58;;;;;;;11.38;5.00;;;;;;;19.37;76.85;102272.66;7400394;19;19926;-63
2023/10/01 10:50:53;;;;;;;15.20;5.13;;;;;;;19.42;75.64;102278.34;7401287;19;20361;-64
2023/10/01 10:53:24;;;;;;;11.93;5.18;;;;;;;19.48;75.59;102267.47;7401439;19;20270;-64
2023/10/01 10:56:05;;;;;;;9.77;4.63;;;;;;;19.58;74.37;102266.28;7402096;19;19942;-64
2023/10/01 10:58:37;;;;;;;18.02;5.38;;;;;;;19.58;74.46;102266.28;7401462;19;19923;-64
2023/10/01 11:01:22;;;;;;;13.10;4.45;;;;;;;19.56;74.50;102258.25;7401047;19;19917;-64
2023/10/01 11:03:54;;;;;;;15.68;5.05;;;;;;;19.57;75.22;102264.59;7401140;19;20257;-64
2023/10/01 11:06:25;;;;;;;12.80;5.75;;;;;;;19.53;73.92;102277.81;7400788;19;19986;-64
2023/10/01 11:09:22;;;;;;;15.90;5.18;;;;;;;19.54;74.81;102267.72;7399933;19;19927;-63
2023/10/01 11:11:52;;;;;;;11.85;4.40;;;;;;;19.54;74.87;102268.56;7400512;19;19930;-64
2023/10/01 11:14:25;;;;;;;14.05;5.47;;;;;;;19.56;74.98;102279.28;7400834;19;20365;-66
2023/10/01 11:16:56;;;;;;;11.95;4.05;;;;;;;19.53;74.78;102285.16;7400803;19;19925;-64
2023/10/01 11:19:27;;;;;;;14.50;4.88;;;;;;;19.52;75.86;102288.94;7400772;19;19927;-63
2023/10/01 11:21:58;;;;;;;13.95;4.72;;;;;;;19.46;74.88;102291.44;7399733;19;19935;-64
2023/10/01 11:24:32;;;;;;;11.75;4.60;;;;;;;19.42;75.33;102283.78;7400075;19;19934;-63
2023/10/01 11:27:18;;;;;;;11.38;4.13;;;;;;;19.40;74.71;102288.63;7400458;19;20329;-64
2023/10/01 11:30:12;;;;;;;16.50;5.53;;;;;;;19.36;74.82;102276.41;7400403;19;19926;-64
2023/10/01 11:33:12;;;;;;;12.13;4.63;;;;;;;19.31;74.69;102271.56;7400155;19;20456;-63
2023/10/01 11:35:59;;;;;;;16.00;4.50;;;;;;;19.38;75.44;102272.44;7400640;19;19910;-64
2023/10/01 11:38:28;;;;;;;16.30;5.07;;;;;;;19.43;75.81;102269.13;7400839;19;19915;-63
2023/10/01 11:41:07;;;;;;;9.18;4.82;;;;;;;19.45;74.51;102267.91;7400707;19;19922;-63
2023/10/01 11:43:40;;;;;;;13.13;4.78;;;;;;;19.52;74.85;102262.44;7400821;19;19919;-64
2023/10/01 11:46:18;;;;;;;8.80;4.20;;;;;;;19.61;74.99;102258.50;7400464;19;19922;-64
2023/10/01 11:49:08;;;;;;;13.05;4.53;;;;;;;19.66;74.56;102258.75;7400221;19;19919;-64
2023/10/01 11:51:41;;;;;;;11.32;4.47;;;;;;;19.68;75.52;102258.53;7399266;19;20245;-65
2023/10/01 11:54:12;;;;;;;12.63;4.20;;;;;;;19.67;75.11;102260.44;7398869;19;19970;-63
2023/10/01 11:56:43;;;;;;;14.38;5.03;;;;;;;19.67;75.28;102254.97;7399221;19;19951;-63
2023/10/01 11:59:17;;;;;;;12.00;4.80;;;;;;;19.68;74.97;102261.25;7400481;19;19978;-63
2023/10/01 12:01:49;;;;;;;17.00;5.25;;;;;;;19.63;75.24;102250.94;7399095;19;19915;-64
2023/10/01 12:07:15;;;;;;;14.18;4.63;;;;;;;19.55;75.51;102251.09;7399406;19;19938;-64
2023/10/01 12:10:06;;;;;;;;;;;;;;;19.44;75.24;102259.88;7401047;19;19986;-64
2023/10/01 12:12:36;;;;;;;13.63;5.40;;;;;;;19.57;75.37;102245.44;7399169;19;19926;-64
2023/10/01 12:17:47;;;;;;;11.55;5.35;;;;;;;19.59;75.57;102248.84;7398336;19;19919;-63
2023/10/01 12:20:28;;;;;;;14.00;5.05;;;;;;;19.59;75.60;102238.72;7398957;19;19922;-64
2023/10/01 12:23:10;;;;;;;13.52;5.07;;;;;;;19.65;75.38;102234.34;7398448;19;20388;-63
2023/10/01 12:25:48;;;;;;;15.70;5.07;;;;;;;19.65;75.03;102235.19;7398893;19;20279;-64
2023/10/01 12:28:18;;;;;;;11.73;4.20;;;;;;;19.70;75.20;102240.03;7398066;19;19926;-65
2023/10/01 12:30:57;;;;;;;16.00;5.22;;;;;;;19.74;74.15;102238.59;7398730;19;19974;-64